Time;durP1;ratioP1;P1;durP2;ratioP2;P2;SDS_P1;SDS_P2;PMS_P1;PMS_P2;Temp;Humidity;BMP_temperature;BMP_pressure;BME280_temperature;BME280_humidity;BME280_pressure;Samples;Min_cycle;Max_cycle;Signal;HPM_P1;HPM_P2
2022/07/02 00:01:42;;;;;;;5.03;3.73;;;17.60;99.90;;;;;;5020879;28;20446;-47
2022/07/02 00:04:18;;;;;;;3.80;3.50;;;17.60;99.90;;;;;;5020536;28;20450;-45
2022/07/02 00:06:47;;;;;;;4.33;3.93;;;17.60;99.90;;;;;;5020558;28;20491;-47
2022/07/02 00:09:14;;;;;;;4.37;3.70;;;17.60;99.90;;;;;;5020929;28;20614;-45
2022/07/02 00:11:42;;;;;;;6.33;3.47;;;17.50;99.90;;;;;;5021402;28;20449;-47
2022/07/02 00:14:09;;;;;;;4.13;3.63;;;17.60;99.90;;;;;;5021057;28;20842;-46
2022/07/02 00:16:38;;;;;;;3.70;3.40;;;17.50;99.90;;;;;;5019903;28;20433;-48
2022/07/02 00:19:05;;;;;;;3.43;2.93;;;17.60;99.90;;;;;;5021004;28;20488;-52
2022/07/02 00:21:33;;;;;;;3.70;3.40;;;17.50;99.90;;;;;;5026057;28;20437;-51
2022/07/02 00:24:00;;;;;;;4.47;3.00;;;17.50;99.90;;;;;;5025017;28;20463;-54
2022/07/02 00:26:39;;;;;;;6.00;3.23;;;17.60;99.90;;;;;;5024661;28;20433;-48
2022/07/02 00:29:26;;;;;;;7.40;3.23;;;17.60;99.90;;;;;;5020553;28;20802;-46
2022/07/02 00:31:54;;;;;;;4.37;4.07;;;17.60;99.90;;;;;;5020477;28;20522;-46
2022/07/02 00:34:24;;;;;;;3.17;2.90;;;17.60;99.90;;;;;;5020219;28;20454;-46
2022/07/02 00:36:51;;;;;;;3.90;3.37;;;17.60;99.90;;;;;;5020241;28;20420;-47
2022/07/02 00:39:21;;;;;;;3.37;3.10;;;17.60;99.90;;;;;;5020586;28;20679;-47
2022/07/02 00:41:49;;;;;;;5.23;4.23;;;17.50;99.90;;;;;;5018764;28;20433;-49
2022/07/02 00:44:18;;;;;;;3.77;3.40;;;17.50;99.90;;;;;;5020398;28;20427;-49
2022/07/02 00:46:47;;;;;;;3.53;3.20;;;17.40;99.90;;;;;;5019563;28;20673;-44
2022/07/02 00:49:17;;;;;;;4.47;4.07;;;17.50;99.90;;;;;;5020424;28;20685;-45
2022/07/02 00:51:44;;;;;;;5.53;4.53;;;17.50;99.90;;;;;;5020074;28;20408;-45
2022/07/02 00:54:12;;;;;;;3.90;3.60;;;17.60;99.90;;;;;;5026921;28;20498;-46
2022/07/02 00:56:39;;;;;;;5.33;4.67;;;17.60;99.90;;;;;;5033686;28;20736;-45
2022/07/02 00:59:06;;;;;;;4.60;3.77;;;17.60;99.90;;;;;;5019740;28;20731;-45
2022/07/02 01:01:33;;;;;;;4.43;4.03;;;17.70;99.90;;;;;;5020289;28;20442;-49
2022/07/02 01:04:01;;;;;;;6.43;4.10;;;17.60;99.90;;;;;;5018607;28;20829;-44
2022/07/02 01:06:31;;;;;;;4.30;4.00;;;17.70;99.90;;;;;;5019775;28;20497;-47
2022/07/02 01:11:46;;;;;;;5.03;4.63;;;17.80;99.90;;;;;;5012921;28;20438;-50
2022/07/02 01:14:18;;;;;;;5.07;4.67;;;17.70;99.90;;;;;;5019607;28;20555;-48
2022/07/02 01:16:45;;;;;;;3.77;3.40;;;17.60;99.90;;;;;;5019478;28;20419;-45
2022/07/02 01:19:17;;;;;;;4.87;4.47;;;17.60;99.90;;;;;;5019956;28;20767;-47
2022/07/02 01:22:13;;;;;;;4.50;4.10;;;17.60;99.90;;;;;;5020017;28;20655;-47
2022/07/02 01:24:42;;;;;;;3.67;3.37;;;17.60;99.90;;;;;;5014563;28;20493;-43
2022/07/02 01:27:10;;;;;;;4.20;3.60;;;17.60;99.90;;;;;;5026432;28;20771;-47
2022/07/02 01:29:37;;;;;;;3.90;3.60;;;17.60;99.90;;;;;;5028834;28;20405;-45
2022/07/02 01:32:06;;;;;;;3.60;3.30;;;17.60;99.90;;;;;;5025334;28;20751;-46
2022/07/02 01:34:39;;;;;;;3.83;3.53;;;17.50;99.90;;;;;;5027674;28;20745;-47
2022/07/02 01:37:10;;;;;;;4.30;3.90;;;17.50;99.90;;;;;;5035395;28;20778;-46
2022/07/02 01:39:41;;;;;;;4.33;3.70;;;17.50;99.90;;;;;;5022054;28;20430;-48
2022/07/02 01:42:10;;;;;;;4.13;3.83;;;17.50;99.90;;;;;;5019378;28;20423;-48
2022/07/02 01:44:38;;;;;;;4.67;3.80;;;17.50;99.90;;;;;;5029664;28;20448;-49
2022/07/02 01:47:08;;;;;;;4.77;4.20;;;17.50;99.90;;;;;;5019578;28;20460;-46
2022/07/02 01:49:37;;;;;;;4.40;4.07;;;17.50;99.90;;;;;;5020773;28;20438;-49
2022/07/02 01:52:05;;;;;;;4.97;4.50;;;17.40;99.90;;;;;;5022210;28;20472;-44
2022/07/02 01:54:33;;;;;;;4.20;3.90;;;17.50;99.90;;;;;;5029437;28;20437;-47
2022/07/02 01:57:00;;;;;;;4.87;4.47;;;17.60;99.90;;;;;;5021134;28;20445;-47
2022/07/02 01:59:28;;;;;;;4.30;3.90;;;17.60;99.90;;;;;;5018861;28;20454;-46
2022/07/02 02:01:55;;;;;;;5.40;4.90;;;17.80;99.90;;;;;;5019356;28;20442;-46
2022/07/02 02:04:23;;;;;;;5.53;4.40;;;17.90;99.90;;;;;;5033717;28;20734;-45
2022/07/02 02:06:50;;;;;;;5.40;4.27;;;17.70;99.90;;;;;;5021330;28;20456;-45
2022/07/02 02:09:18;;;;;;;5.40;4.90;;;17.70;99.90;;;;;;5018767;28;20437;-49
2022/07/02 02:11:45;;;;;;;5.20;4.40;;;17.60;99.90;;;;;;5019313;28;20448;-46
2022/07/02 02:14:13;;;;;;;5.03;4.60;;;17.60;99.90;;;;;;5018395;28;20649;-49
2022/07/02 02:16:40;;;;;;;6.10;5.60;;;17.60;99.90;;;;;;5022071;28;20463;-51
2022/07/02 02:19:07;;;;;;;5.30;4.63;;;17.60;99.90;;;;;;5022519;28;20788;-47
2022/07/02 02:21:34;;;;;;;5.50;5.00;;;17.70;99.90;;;;;;5025892;28;20444;-47
2022/07/02 02:24:01;;;;;;;4.63;4.23;;;17.70;99.90;;;;;;5040949;28;20481;-49
2022/07/02 02:26:29;;;;;;;6.00;5.40;;;17.70;99.90;;;;;;5034078;28;20439;-46
2022/07/02 02:28:56;;;;;;;4.63;4.23;;;17.60;99.90;;;;;;5029102;28;20445;-48
2022/07/02 02:31:23;;;;;;;6.33;5.17;;;17.50;99.90;;;;;;5024538;28;20441;-48
2022/07/02 02:33:50;;;;;;;5.93;4.93;;;17.40;99.90;;;;;;5023361;28;20685;-48
2022/07/02 02:36:18;;;;;;;6.30;5.67;;;17.40;99.90;;;;;;5022054;28;20471;-42
2022/07/02 02:38:46;;;;;;;5.90;5.27;;;17.40;99.90;;;;;;5020411;28;20744;-45
2022/07/02 02:41:14;;;;;;;7.40;5.47;;;17.40;99.90;;;;;;5022069;28;20438;-46
2022/07/02 02:43:41;;;;;;;6.73;6.03;;;17.30;99.90;;;;;;5026999;28;20455;-48
2022/07/02 02:46:09;;;;;;;5.93;5.37;;;17.40;99.90;;;;;;5033016;28;20445;-45
2022/07/02 02:48:37;;;;;;;6.63;5.90;;;17.40;99.90;;;;;;5027825;28;20445;-46
2022/07/02 02:51:06;;;;;;;5.83;5.33;;;17.40;99.90;;;;;;5028866;28;20445;-45
2022/07/02 02:53:34;;;;;;;6.37;5.50;;;17.30;99.90;;;;;;5038549;28;20482;-44
2022/07/02 02:56:02;;;;;;;6.67;5.63;;;17.40;99.90;;;;;;5035106;28;20487;-47
2022/07/02 02:58:29;;;;;;;6.20;5.63;;;17.30;99.90;;;;;;5024914;28;20438;-50
2022/07/02 03:00:56;;;;;;;7.03;6.43;;;17.20;99.90;;;;;;5034215;28;20474;-48
2022/07/02 03:03:24;;;;;;;6.77;6.17;;;17.20;99.90;;;;;;5025224;28;20530;-48
2022/07/02 03:05:52;;;;;;;7.67;7.07;;;17.10;99.90;;;;;;5014755;28;20493;-45
2022/07/02 03:08:20;;;;;;;8.10;7.33;;;17.20;99.90;;;;;;5021706;28;20560;-46
2022/07/02 03:10:47;;;;;;;10.20;7.33;;;17.10;99.90;;;;;;5021127;28;20459;-49
2022/07/02 03:13:16;;;;;;;6.13;5.63;;;17.10;99.90;;;;;;5028906;28;20462;-45
2022/07/02 03:15:43;;;;;;;12.50;9.50;;;17.10;99.90;;;;;;5028461;28;20656;-50
2022/07/02 03:18:10;;;;;;;8.90;6.63;;;17.10;99.90;;;;;;5021766;28;20439;-48
2022/07/02 03:20:37;;;;;;;8.77;7.87;;;17.10;99.90;;;;;;5021483;28;20476;-47
2022/07/02 03:23:05;;;;;;;8.70;7.90;;;17.10;99.90;;;;;;5016989;28;20463;-46
2022/07/02 03:25:32;;;;;;;14.20;9.20;;;17.20;99.90;;;;;;5019876;28;20443;-50
2022/07/02 03:27:59;;;;;;;8.20;7.43;;;17.20;99.90;;;;;;5020845;28;20417;-48
2022/07/02 03:30:27;;;;;;;19.97;9.23;;;17.10;99.90;;;;;;5021690;28;20449;-47
2022/07/02 03:32:54;;;;;;;9.83;8.67;;;17.10;99.90;;;;;;5021724;28;20845;-45
2022/07/02 03:35:21;;;;;;;8.87;7.97;;;17.00;99.90;;;;;;5021231;28;20490;-49
2022/07/02 03:37:48;;;;;;;8.60;7.70;;;16.90;99.90;;;;;;5021448;28;20448;-48
2022/07/02 03:40:15;;;;;;;10.70;8.70;;;16.80;99.90;;;;;;5017205;28;20453;-47
2022/07/02 03:42:42;;;;;;;12.30;9.23;;;16.70;99.90;;;;;;5023981;28;20436;-46
2022/07/02 03:45:13;;;;;;;13.10;8.63;;;16.80;99.90;;;;;;5029554;28;20830;-47
2022/07/02 03:47:40;;;;;;;13.93;10.10;;;16.80;99.90;;;;;;5037762;28;20461;-49
2022/07/02 03:50:07;;;;;;;10.57;8.50;;;16.70;99.90;;;;;;5030985;28;20438;-46
2022/07/02 03:52:39;;;;;;;9.07;7.83;;;16.70;99.90;;;;;;5023408;28;20467;-49
2022/07/02 03:55:13;;;;;;;10.60;9.13;;;16.70;99.90;;;;;;5032233;28;20433;-46
2022/07/02 03:57:40;;;;;;;9.90;8.23;;;16.70;99.90;;;;;;5028631;28;20437;-51
2022/07/02 04:00:08;;;;;;;10.63;8.57;;;16.70;99.90;;;;;;5029230;28;20502;-47
2022/07/02 04:02:35;;;;;;;9.87;8.10;;;16.80;99.90;;;;;;5027700;28;20459;-51
2022/07/02 04:05:02;;;;;;;10.80;8.67;;;16.80;99.90;;;;;;5020873;28;20447;-48
2022/07/02 04:07:29;;;;;;;9.37;8.43;;;16.80;99.90;;;;;;5021054;28;20761;-51
2022/07/02 04:09:56;;;;;;;9.57;8.57;;;16.80;99.90;;;;;;5028451;28;20411;-48
2022/07/02 04:12:23;;;;;;;12.13;9.87;;;16.80;99.90;;;;;;5024082;28;20483;-45
2022/07/02 04:14:51;;;;;;;11.40;9.63;;;16.80;99.90;;;;;;5020224;28;20536;-48
2022/07/02 04:17:18;;;;;;;10.80;8.30;;;16.80;99.90;;;;;;5023135;28;20482;-49
2022/07/02 04:19:45;;;;;;;14.17;9.33;;;16.80;99.90;;;;;;5022964;28;20405;-47
2022/07/02 04:22:13;;;;;;;9.00;8.10;;;16.80;99.90;;;;;;5020612;28;20842;-44
2022/07/02 04:24:43;;;;;;;9.20;8.30;;;16.80;99.90;;;;;;5015595;28;20430;-46
2022/07/02 04:27:10;;;;;;;9.60;8.27;;;16.80;99.90;;;;;;5020521;28;20422;-46
2022/07/02 04:29:38;;;;;;;12.03;8.60;;;16.70;99.90;;;;;;5027366;28;20797;-49
2022/07/02 04:32:06;;;;;;;10.10;8.77;;;16.80;99.90;;;;;;5023618;28;20583;-46
2022/07/02 04:34:33;;;;;;;8.13;7.40;;;16.90;99.90;;;;;;5020649;28;20456;-48
2022/07/02 04:37:00;;;;;;;14.60;9.00;;;16.80;99.90;;;;;;5020652;28;20674;-46
2022/07/02 04:39:28;;;;;;;9.63;8.67;;;16.70;99.90;;;;;;5022536;28;20528;-48
2022/07/02 04:41:55;;;;;;;10.80;9.73;;;16.60;99.90;;;;;;5023001;28;20405;-46
2022/07/02 04:44:24;;;;;;;9.57;8.57;;;16.50;99.90;;;;;;5026460;28;20473;-44
2022/07/02 04:46:51;;;;;;;12.10;8.87;;;16.40;99.90;;;;;;5029242;28;20449;-52
2022/07/02 04:49:18;;;;;;;10.90;9.80;;;16.40;99.90;;;;;;5034208;28;20446;-52
2022/07/02 04:51:45;;;;;;;11.23;9.33;;;16.30;99.90;;;;;;5030668;28;20416;-46
2022/07/02 04:54:12;;;;;;;15.03;11.00;;;16.20;99.90;;;;;;5028367;28;20459;-47
2022/07/02 04:56:39;;;;;;;12.40;10.93;;;16.10;99.90;;;;;;5026562;28;20474;-49
2022/07/02 04:59:07;;;;;;;14.23;10.93;;;16.10;99.90;;;;;;5021810;28;20503;-46
2022/07/02 05:01:34;;;;;;;12.23;10.97;;;16.00;99.90;;;;;;5025777;28;20443;-47
2022/07/02 05:04:02;;;;;;;12.37;10.90;;;16.00;99.90;;;;;;5023337;28;20518;-47
2022/07/02 05:06:29;;;;;;;14.50;11.40;;;16.00;99.90;;;;;;5019307;28;20444;-48
2022/07/02 05:08:56;;;;;;;12.27;10.93;;;16.00;99.90;;;;;;5020051;28;20445;-51
2022/07/02 05:11:23;;;;;;;13.97;12.10;;;16.00;99.90;;;;;;5027116;28;20447;-44
2022/07/02 05:13:51;;;;;;;16.30;11.40;;;16.00;99.90;;;;;;5030050;28;20471;-47
2022/07/02 05:16:18;;;;;;;13.97;12.50;;;16.00;99.90;;;;;;5033733;28;20771;-46
2022/07/02 05:18:46;;;;;;;11.43;10.20;;;15.90;99.90;;;;;;5019789;28;20409;-46
2022/07/02 05:21:13;;;;;;;11.33;10.13;;;16.00;99.90;;;;;;5019699;28;20433;-44
2022/07/02 05:23:40;;;;;;;10.20;9.17;;;16.00;99.90;;;;;;5019790;28;20654;-48
2022/07/02 05:26:07;;;;;;;11.33;10.23;;;15.90;99.90;;;;;;5019642;28;20441;-47
2022/07/02 05:28:35;;;;;;;10.57;8.20;;;15.80;99.90;;;;;;5019361;28;20620;-49
2022/07/02 05:31:02;;;;;;;11.47;10.37;;;15.80;99.90;;;;;;5017660;28;20449;-46
2022/07/02 05:33:30;;;;;;;13.87;11.13;;;16.00;99.90;;;;;;5018808;28;20476;-51
2022/07/02 05:35:57;;;;;;;11.70;8.20;;;16.20;99.90;;;;;;5013000;28;20488;-51
2022/07/02 05:38:24;;;;;;;11.80;10.57;;;16.40;99.90;;;;;;5019557;28;20428;-48
2022/07/02 05:40:51;;;;;;;11.13;9.77;;;16.60;99.90;;;;;;5015470;28;20678;-46
2022/07/02 05:43:19;;;;;;;11.50;9.50;;;16.60;99.90;;;;;;5018704;28;20468;-50
2022/07/02 05:45:48;;;;;;;10.10;9.10;;;16.80;99.90;;;;;;5011505;28;20412;-48
2022/07/02 05:48:16;;;;;;;11.73;9.97;;;16.90;99.90;;;;;;5017554;28;20740;-50
2022/07/02 05:50:44;;;;;;;11.43;7.23;;;17.20;99.90;;;;;;5021295;28;20465;-48
2022/07/02 05:53:11;;;;;;;8.80;7.50;;;17.40;99.90;;;;;;5023243;28;20635;-47
2022/07/02 05:55:39;;;;;;;9.73;7.63;;;17.50;99.90;;;;;;5032977;28;20434;-49
2022/07/02 05:58:07;;;;;;;9.10;7.03;;;17.70;99.90;;;;;;5024780;28;20549;-46
2022/07/02 06:00:34;;;;;;;20.37;9.30;;;18.00;99.90;;;;;;5022844;28;20434;-50
2022/07/02 06:03:02;;;;;;;7.80;7.07;;;18.10;99.90;;;;;;5023809;28;20460;-51
2022/07/02 06:08:15;;;;;;;6.90;6.20;;;18.40;99.90;;;;;;5015987;28;20676;-53
2022/07/02 06:10:43;;;;;;;10.50;7.00;;;18.90;99.90;;;;;;5023023;28;20471;-50
2022/07/02 06:13:10;;;;;;;5.50;4.87;;;19.20;99.90;;;;;;5023057;28;20804;-45
2022/07/02 06:15:41;;;;;;;5.53;4.43;;;19.10;99.90;;;;;;5019688;28;20421;-45
2022/07/02 06:18:08;;;;;;;5.10;4.60;;;19.20;99.90;;;;;;5020350;28;20477;-47
2022/07/02 06:20:35;;;;;;;4.90;4.50;;;19.60;99.90;;;;;;5022842;28;20434;-50
2022/07/02 06:23:03;;;;;;;5.37;4.87;;;19.90;99.90;;;;;;5022095;28;20476;-45
2022/07/02 06:25:30;;;;;;;6.10;5.27;;;20.20;99.90;;;;;;5023043;28;20481;-52
2022/07/02 06:27:57;;;;;;;5.90;5.40;;;20.60;99.90;;;;;;5022826;28;20756;-50
2022/07/02 06:30:25;;;;;;;4.53;3.73;;;21.10;99.90;;;;;;5022475;28;20438;-47
2022/07/02 06:32:52;;;;;;;4.73;4.10;;;21.40;99.90;;;;;;5022274;28;20685;-48
2022/07/02 06:35:20;;;;;;;4.97;4.57;;;21.70;99.90;;;;;;5023097;28;20481;-48
2022/07/02 06:37:47;;;;;;;4.47;4.07;;;22.00;99.90;;;;;;5018821;28;20799;-48
2022/07/02 06:40:14;;;;;;;6.80;4.57;;;22.10;99.90;;;;;;5022313;28;20427;-47
2022/07/02 06:42:41;;;;;;;3.93;3.63;;;22.50;99.90;;;;;;5020193;28;20769;-47
2022/07/02 06:45:09;;;;;;;3.30;3.00;;;23.20;99.90;;;;;;5022505;28;20465;-47
2022/07/02 06:47:42;;;;;;;5.37;4.87;;;23.50;99.90;;;;;;5022986;28;20445;-46
2022/07/02 06:50:10;;;;;;;4.40;4.03;;;23.80;99.90;;;;;;5022556;28;20446;-46
2022/07/02 06:52:38;;;;;;;3.20;3.00;;;24.10;99.90;;;;;;5022630;28;20437;-48
2022/07/02 06:55:05;;;;;;;4.83;3.27;;;24.40;99.90;;;;;;5017896;28;20436;-47
2022/07/02 06:57:32;;;;;;;3.33;3.03;;;25.20;99.90;;;;;;5027948;28;20453;-47
2022/07/02 06:59:59;;;;;;;4.50;3.00;;;25.80;99.90;;;;;;5022395;28;20438;-49
2022/07/02 07:02:27;;;;;;;3.70;3.40;;;25.90;99.90;;;;;;5020980;28;20537;-50
2022/07/02 07:04:54;;;;;;;2.63;2.43;;;26.30;99.90;;;;;;5019379;28;20498;-51
2022/07/02 07:07:27;;;;;;;2.23;2.07;;;26.80;99.90;;;;;;5010411;28;20436;-50
2022/07/02 07:09:55;;;;;;;2.10;2.00;;;27.50;99.90;;;;;;5015604;28;20441;-45
2022/07/02 07:12:22;;;;;;;2.10;2.00;;;26.40;99.90;;;;;;5016734;28;20470;-45
2022/07/02 07:14:49;;;;;;;2.10;2.00;;;26.70;99.90;;;;;;5022345;28;20448;-44
2022/07/02 07:17:17;;;;;;;2.20;2.10;;;26.90;99.90;;;;;;5021766;28;20490;-51
2022/07/02 07:19:44;;;;;;;3.23;2.20;;;27.30;99.90;;;;;;5022164;28;20467;-48
2022/07/02 07:22:12;;;;;;;1.90;1.80;;;28.00;99.90;;;;;;5021679;28;20680;-51
2022/07/02 07:24:42;;;;;;;2.23;2.03;;;27.90;99.90;;;;;;5020841;28;20406;-51
2022/07/02 07:27:10;;;;;;;1.93;1.83;;;28.10;99.40;;;;;;5019954;28;20548;-48
2022/07/02 07:29:40;;;;;;;1.97;1.87;;;28.10;98.50;;;;;;5018820;28;20442;-51
2022/07/02 07:32:07;;;;;;;1.83;1.60;;;28.60;97.00;;;;;;5011235;28;20447;-53
2022/07/02 07:34:40;;;;;;;2.33;1.70;;;29.00;94.70;;;;;;5017471;28;20572;-52
2022/07/02 07:37:07;;;;;;;2.43;2.23;;;29.20;94.60;;;;;;5020734;28;20650;-48
2022/07/02 07:39:34;;;;;;;1.57;1.40;;;29.50;92.30;;;;;;5007611;28;20440;-46
2022/07/02 07:42:02;;;;;;;1.80;1.70;;;29.40;91.50;;;;;;5014918;28;20452;-50
2022/07/02 07:44:29;;;;;;;6.63;1.57;;;29.30;91.30;;;;;;5009738;28;20459;-53
2022/07/02 07:46:57;;;;;;;3.23;2.00;;;29.10;91.70;;;;;;5013414;28;20765;-49
2022/07/02 07:49:26;;;;;;;1.87;1.77;;;29.20;91.20;;;;;;5021436;28;20444;-50
2022/07/02 07:51:54;;;;;;;1.80;1.43;;;28.80;91.80;;;;;;5020794;28;20485;-45
2022/07/02 07:54:21;;;;;;;2.80;2.33;;;30.50;91.00;;;;;;5029435;28;20465;-51
2022/07/02 07:56:48;;;;;;;2.20;2.10;;;32.20;82.50;;;;;;5029837;28;20509;-53
2022/07/02 07:59:16;;;;;;;3.40;2.17;;;31.00;83.70;;;;;;5021170;28;20448;-48
2022/07/02 08:01:43;;;;;;;2.47;2.10;;;28.90;90.70;;;;;;5021273;28;20599;-50
2022/07/02 08:04:11;;;;;;;2.90;2.60;;;29.60;90.70;;;;;;5017841;28;20462;-50
2022/07/02 08:06:38;;;;;;;2.60;2.03;;;31.80;84.50;;;;;;5017247;28;20523;-50
2022/07/02 08:09:05;;;;;;;2.10;1.77;;;32.40;83.00;;;;;;5015875;28;20462;-51
2022/07/02 08:11:32;;;;;;;2.37;2.17;;;32.40;79.00;;;;;;5016583;28;20768;-51
2022/07/02 08:14:00;;;;;;;3.00;1.93;;;29.90;85.30;;;;;;5014350;28;20493;-54
2022/07/02 08:16:28;;;;;;;2.03;1.93;;;29.40;87.40;;;;;;5015792;28;20485;-48
2022/07/02 08:18:58;;;;;;;1.80;1.70;;;31.80;79.60;;;;;;5014208;28;20450;-46
2022/07/02 08:21:25;;;;;;;1.93;1.70;;;33.70;71.20;;;;;;5019613;28;20460;-48
2022/07/02 08:23:52;;;;;;;2.20;1.80;;;31.00;73.40;;;;;;5015430;28;20460;-50
2022/07/02 08:26:20;;;;;;;1.57;1.50;;;28.50;84.40;;;;;;5017330;28;20431;-47
2022/07/02 08:28:47;;;;;;;1.70;1.60;;;26.50;91.20;;;;;;5017807;28;20446;-49
2022/07/02 08:31:14;;;;;;;2.03;1.93;;;26.50;94.30;;;;;;5015802;28;20445;-47
2022/07/02 08:33:42;;;;;;;2.30;1.60;;;27.60;92.20;;;;;;5020621;28;20474;-45
2022/07/02 08:36:10;;;;;;;1.67;1.57;;;30.20;84.10;;;;;;5015287;28;20446;-51
2022/07/02 08:38:37;;;;;;;1.43;1.33;;;32.70;74.50;;;;;;5017574;28;20756;-49
2022/07/02 08:41:06;;;;;;;1.60;1.50;;;34.20;65.50;;;;;;5015453;28;20453;-49
2022/07/02 08:43:36;;;;;;;2.00;1.60;;;33.40;66.70;;;;;;5033810;28;20458;-50
2022/07/02 08:46:07;;;;;;;4.37;1.50;;;34.00;67.10;;;;;;5016119;28;20453;-53
2022/07/02 08:48:35;;;;;;;1.50;1.40;;;34.10;64.40;;;;;;5010983;28;20663;-51
2022/07/02 08:51:03;;;;;;;1.77;1.67;;;31.40;69.90;;;;;;5020928;28;20446;-49
2022/07/02 08:53:33;;;;;;;2.30;1.40;;;30.60;74.10;;;;;;5021456;28;20460;-51
2022/07/02 08:56:01;;;;;;;1.50;1.40;;;31.90;71.00;;;;;;5025452;28;20642;-50
2022/07/02 08:58:29;;;;;;;1.30;1.20;;;33.20;67.00;;;;;;5019433;28;20465;-49
2022/07/02 09:00:57;;;;;;;2.13;1.53;;;34.00;65.20;;;;;;5020321;28;20465;-48
2022/07/02 09:03:26;;;;;;;1.83;1.27;;;35.50;61.10;;;;;;5019723;28;20450;-52
2022/07/02 09:05:55;;;;;;;2.07;1.93;;;36.50;58.60;;;;;;5020801;28;20506;-52
2022/07/02 09:08:23;;;;;;;1.57;1.47;;;34.60;58.60;;;;;;5019700;28;20469;-51
2022/07/02 09:10:56;;;;;;;4.57;1.80;;;34.50;59.80;;;;;;5020327;28;20781;-49
2022/07/02 09:13:24;;;;;;;1.67;1.40;;;35.30;59.10;;;;;;5020532;28;20477;-50
2022/07/02 09:15:52;;;;;;;2.37;1.43;;;35.70;58.00;;;;;;5020005;28;20446;-48
2022/07/02 09:18:20;;;;;;;3.30;1.97;;;34.70;59.00;;;;;;5019640;28;20487;-51
2022/07/02 09:20:47;;;;;;;5.23;2.23;;;31.90;64.30;;;;;;5020207;28;20434;-48
2022/07/02 09:23:20;;;;;;;1.67;1.57;;;31.00;68.30;;;;;;5019892;28;20540;-47
2022/07/02 09:25:49;;;;;;;2.00;1.90;;;29.40;71.90;;;;;;5019810;28;20434;-53
2022/07/02 09:28:17;;;;;;;2.60;1.63;;;30.60;69.50;;;;;;5024214;28;20451;-54
2022/07/02 09:30:45;;;;;;;1.57;1.27;;;32.00;64.00;;;;;;5023739;28;20426;-49
2022/07/02 09:33:35;;;;;;;5.13;1.93;;;30.10;67.50;;;;;;5016523;28;20466;-48
2022/07/02 09:36:12;;;;;;;1.40;1.30;;;29.80;71.20;;;;;;5012571;28;20434;-49
2022/07/02 09:38:47;;;;;;;2.70;1.40;;;30.60;69.20;;;;;;5020125;28;20474;-50
2022/07/02 09:41:19;;;;;;;1.47;1.17;;;30.90;68.40;;;;;;5020209;28;20445;-51
2022/07/02 09:43:46;;;;;;;1.90;1.80;;;28.10;72.50;;;;;;5019847;28;20466;-45
2022/07/02 09:46:21;;;;;;;3.17;1.93;;;26.60;81.20;;;;;;5019810;28;20439;-48
2022/07/02 09:48:48;;;;;;;1.43;1.33;;;26.00;86.80;;;;;;5011915;28;20609;-49
2022/07/02 09:51:17;;;;;;;1.93;1.83;;;25.90;90.00;;;;;;5018619;28;20406;-49
2022/07/02 09:53:52;;;;;;;2.40;1.73;;;25.80;88.30;;;;;;5011905;28;20570;-50
2022/07/02 09:56:22;;;;;;;3.53;2.60;;;25.50;91.10;;;;;;5011247;28;20641;-46
2022/07/02 09:58:50;;;;;;;1.83;1.73;;;25.70;91.30;;;;;;5009845;28;20731;-52
2022/07/02 10:01:19;;;;;;;2.87;2.07;;;25.20;93.40;;;;;;5007865;28;20494;-48
2022/07/02 10:03:53;;;;;;;2.93;2.13;;;25.00;95.30;;;;;;5006362;28;20459;-46
2022/07/02 10:06:20;;;;;;;2.70;2.50;;;24.50;97.10;;;;;;5012681;28;20413;-50
2022/07/02 10:08:55;;;;;;;1.97;1.80;;;24.80;98.90;;;;;;5015818;28;20441;-51
2022/07/02 10:11:26;;;;;;;2.20;2.00;;;24.80;96.80;;;;;;5011400;28;20812;-50
2022/07/02 10:13:55;;;;;;;1.67;1.57;;;24.60;97.60;;;;;;5011007;28;20463;-49
2022/07/02 10:16:24;;;;;;;1.70;1.60;;;24.40;97.80;;;;;;5008417;28;20436;-52
2022/07/02 10:18:52;;;;;;;1.77;1.50;;;25.10;97.90;;;;;;5003869;28;20454;-47
2022/07/02 10:21:21;;;;;;;2.47;2.13;;;25.70;95.90;;;;;;5009550;28;20441;-47
2022/07/02 10:23:50;;;;;;;3.93;1.63;;;25.70;95.80;;;;;;5003339;28;20425;-49
2022/07/02 10:26:18;;;;;;;1.63;1.53;;;25.40;95.10;;;;;;5010189;28;20409;-53
2022/07/02 10:28:49;;;;;;;2.07;1.97;;;25.30;94.70;;;;;;5006528;28;20452;-53
2022/07/02 10:31:19;;;;;;;1.83;1.73;;;25.00;95.40;;;;;;5015870;28;20414;-50
2022/07/02 10:34:06;;;;;;;4.20;2.33;;;24.50;97.60;;;;;;5002931;28;20444;-47
2022/07/02 10:36:34;;;;;;;4.23;1.90;;;24.60;98.10;;;;;;5003391;28;20748;-47
2022/07/02 10:39:02;;;;;;;1.90;1.80;;;24.40;98.40;;;;;;5010450;28;20482;-47
2022/07/02 10:41:32;;;;;;;2.93;1.77;;;24.40;98.60;;;;;;5010677;28;20405;-52
2022/07/02 10:44:00;;;;;;;2.23;2.03;;;24.60;96.80;;;;;;5014659;28;20474;-50
2022/07/02 10:46:33;;;;;;;2.00;1.90;;;24.80;96.80;;;;;;5011296;28;20692;-50
2022/07/02 10:49:00;;;;;;;4.60;2.17;;;25.10;96.10;;;;;;5013693;28;20446;-47
2022/07/02 10:51:35;;;;;;;5.03;1.70;;;24.80;96.20;;;;;;5007986;28;20439;-50
2022/07/02 10:54:07;;;;;;;2.30;1.80;;;24.80;96.70;;;;;;5012835;28;20473;-49
2022/07/02 10:56:49;;;;;;;1.93;1.73;;;24.40;98.60;;;;;;5009260;28;20510;-46
2022/07/02 10:59:24;;;;;;;2.73;1.83;;;23.90;99.60;;;;;;5012614;28;20469;-52
2022/07/02 11:02:14;;;;;;;4.03;1.80;;;23.90;99.90;;;;;;5011031;28;20464;-51
2022/07/02 11:04:42;;;;;;;2.03;1.93;;;23.90;99.90;;;;;;5013569;28;20576;-50
2022/07/02 11:07:12;;;;;;;1.87;1.77;;;23.90;99.90;;;;;;5017216;28;20562;-49
2022/07/02 11:09:50;;;;;;;1.53;1.43;;;23.70;99.90;;;;;;5017449;28;20419;-46
2022/07/02 11:12:59;;;;;;;2.40;1.60;;;23.80;99.90;;;;;;5017062;28;20440;-50
2022/07/02 11:15:40;;;;;;;4.53;1.90;;;23.80;99.90;;;;;;5019979;28;20416;-53
2022/07/02 11:18:09;;;;;;;2.37;2.20;;;24.00;99.90;;;;;;5019730;28;20466;-47
2022/07/02 11:20:37;;;;;;;3.90;1.87;;;24.40;99.80;;;;;;5013663;28;20478;-45
2022/07/02 11:23:04;;;;;;;4.00;2.03;;;24.80;98.60;;;;;;5013319;28;20435;-48
2022/07/02 11:25:32;;;;;;;4.33;1.97;;;25.00;96.80;;;;;;5021673;28;20464;-46
2022/07/02 11:28:02;;;;;;;1.50;1.40;;;24.80;97.70;;;;;;5012958;28;20438;-50
2022/07/02 11:30:31;;;;;;;2.50;1.60;;;24.90;96.50;;;;;;5020026;28;20437;-46
2022/07/02 11:32:59;;;;;;;1.83;1.73;;;24.50;96.00;;;;;;5021707;28;20496;-47
2022/07/02 11:35:27;;;;;;;1.93;1.60;;;24.00;97.20;;;;;;5012015;28;20441;-47
2022/07/02 11:37:56;;;;;;;1.77;1.60;;;24.20;96.70;;;;;;5020810;28;20501;-48
2022/07/02 11:40:24;;;;;;;1.70;1.60;;;24.30;96.80;;;;;;5021827;28;20434;-46
2022/07/02 11:42:52;;;;;;;1.70;1.60;;;24.70;97.50;;;;;;5021027;28;20454;-47
2022/07/02 11:45:19;;;;;;;4.53;2.00;;;25.40;96.10;;;;;;5021145;28;20438;-48
2022/07/02 11:47:53;;;;;;;2.23;1.93;;;25.90;94.90;;;;;;5021474;28;20424;-51
2022/07/02 11:50:31;;;;;;;1.83;1.63;;;25.80;95.00;;;;;;5021953;28;20461;-48
2022/07/02 11:52:59;;;;;;;1.50;1.40;;;26.00;94.30;;;;;;5020398;28;20444;-48
2022/07/02 11:55:26;;;;;;;2.07;1.50;;;25.80;95.40;;;;;;5019190;28;20735;-48
2022/07/02 11:57:53;;;;;;;1.73;1.57;;;25.50;93.30;;;;;;5019576;28;20481;-51
2022/07/02 12:00:28;;;;;;;1.40;1.30;;;25.50;93.30;;;;;;5020284;28;20427;-47
2022/07/02 12:02:55;;;;;;;1.93;1.57;;;25.60;92.40;;;;;;5019384;28;20671;-54
2022/07/02 12:05:22;;;;;;;1.60;1.50;;;25.70;92.90;;;;;;5020249;28;20509;-47
2022/07/02 12:07:49;;;;;;;2.13;2.03;;;25.60;93.10;;;;;;5020273;28;20509;-45
2022/07/02 12:10:16;;;;;;;1.67;1.57;;;25.40;93.90;;;;;;5020507;28;20438;-47
2022/07/02 12:12:43;;;;;;;2.50;1.73;;;24.80;94.80;;;;;;5021053;28;20458;-48
2022/07/02 12:15:11;;;;;;;1.40;1.30;;;24.70;95.30;;;;;;5021374;28;20413;-53
2022/07/02 12:17:49;;;;;;;1.77;1.53;;;24.80;96.60;;;;;;5061133;23;20485;-59
2022/07/02 12:20:20;;;;;;;1.80;1.70;;;24.70;97.50;;;;;;5045365;28;20404;-62
2022/07/02 12:22:52;;;;;;;2.60;1.40;;;24.80;97.00;;;;;;5041659;28;20747;-58
2022/07/02 12:25:28;;;;;;;1.60;1.50;;;25.00;96.10;;;;;;5040664;28;20429;-62
2022/07/02 12:27:55;;;;;;;1.97;1.87;;;25.40;95.80;;;;;;5039738;28;20642;-58
2022/07/02 12:30:29;;;;;;;1.73;1.63;;;25.40;94.70;;;;;;5039658;28;20721;-63
2022/07/02 12:32:57;;;;;;;1.43;1.33;;;25.60;95.10;;;;;;5039255;28;20424;-61
2022/07/02 12:35:25;;;;;;;1.40;1.30;;;25.80;95.10;;;;;;5039559;28;20443;-60
2022/07/02 12:37:58;;;;;;;2.03;1.73;;;25.90;95.10;;;;;;5039758;28;20509;-59
2022/07/02 12:40:29;;;;;;;3.80;1.83;;;25.20;95.80;;;;;;5039508;28;20434;-61
2022/07/02 12:42:58;;;;;;;1.87;1.67;;;24.80;96.80;;;;;;5039184;28;20436;-57
2022/07/02 12:45:33;;;;;;;2.20;2.00;;;24.60;96.80;;;;;;5039677;28;20438;-56
2022/07/02 12:48:06;;;;;;;3.20;1.63;;;24.50;97.00;;;;;;5039699;28;20456;-58
2022/07/02 12:50:37;;;;;;;3.43;2.90;;;24.10;96.60;;;;;;5040879;28;20430;-58
2022/07/02 12:53:07;;;;;;;1.70;1.60;;;24.10;98.00;;;;;;5041048;28;20415;-59
2022/07/02 12:55:36;;;;;;;1.67;1.50;;;24.30;98.20;;;;;;5040687;28;20404;-58
2022/07/02 12:58:07;;;;;;;2.40;2.00;;;24.70;97.50;;;;;;5040647;28;20634;-57
2022/07/02 13:00:36;;;;;;;1.60;1.50;;;25.20;96.40;;;;;;5040890;28;20504;-61